createdAt,value
2022-08-26T00:01:52.312Z,100.00
2022-08-26T00:04:19.159Z,100.00
2022-08-26T00:06:46.096Z,100.00
2022-08-26T00:09:16.204Z,100.00
2022-08-26T00:11:45.347Z,100.00
2022-08-26T00:14:13.362Z,100.00
2022-08-26T00:16:41.018Z,100.00
2022-08-26T00:19:14.366Z,100.00
2022-08-26T00:21:41.421Z,100.00
2022-08-26T00:24:08.100Z,100.00
2022-08-26T00:26:34.970Z,100.00
2022-08-26T00:29:01.984Z,100.00
2022-08-26T00:31:31.139Z,100.00
2022-08-26T00:33:58.888Z,100.00
2022-08-26T00:36:29.920Z,100.00
2022-08-26T00:38:57.966Z,100.00
2022-08-26T00:41:24.685Z,100.00
2022-08-26T00:43:53.286Z,100.00
2022-08-26T00:46:25.324Z,100.00
2022-08-26T00:49:05.585Z,100.00
2022-08-26T00:51:46.234Z,100.00
2022-08-26T00:54:13.787Z,100.00
2022-08-26T00:56:55.190Z,100.00
2022-08-26T00:59:23.884Z,100.00
2022-08-26T01:01:51.558Z,100.00
2022-08-26T01:04:21.682Z,100.00
2022-08-26T01:06:51.025Z,100.00
2022-08-26T01:09:18.732Z,100.00
2022-08-26T01:11:47.400Z,100.00
2022-08-26T01:14:14.598Z,100.00
2022-08-26T01:16:42.251Z,100.00
2022-08-26T01:19:45.606Z,100.00
2022-08-26T01:22:28.754Z,100.00
2022-08-26T01:24:58.614Z,100.00
2022-08-26T01:27:27.347Z,100.00
2022-08-26T01:30:00.510Z,100.00
2022-08-26T01:32:28.367Z,100.00
2022-08-26T01:34:55.098Z,100.00
2022-08-26T01:37:29.587Z,100.00
2022-08-26T01:39:57.328Z,100.00
2022-08-26T01:42:27.019Z,100.00
2022-08-26T01:45:10.353Z,100.00
2022-08-26T01:47:38.577Z,100.00
2022-08-26T01:50:11.867Z,100.00
2022-08-26T01:52:42.701Z,100.00
2022-08-26T01:55:10.325Z,100.00
2022-08-26T01:57:37.653Z,100.00
2022-08-26T02:00:08.089Z,100.00
2022-08-26T02:02:34.817Z,100.00
2022-08-26T02:05:06.613Z,100.00
2022-08-26T02:07:33.918Z,100.00
2022-08-26T02:10:00.814Z,100.00
2022-08-26T02:12:27.977Z,100.00
2022-08-26T02:15:00.827Z,100.00
2022-08-26T02:17:33.650Z,100.00
2022-08-26T02:20:02.774Z,100.00
2022-08-26T02:22:31.454Z,100.00
2022-08-26T02:25:10.897Z,100.00
2022-08-26T02:27:37.630Z,100.00
2022-08-26T02:30:20.630Z,100.00
2022-08-26T02:32:49.506Z,100.00
2022-08-26T02:35:20.349Z,100.00
2022-08-26T02:37:49.434Z,100.00
2022-08-26T02:40:19.204Z,100.00
2022-08-26T02:42:48.383Z,100.00
2022-08-26T02:45:16.780Z,100.00
2022-08-26T02:47:51.028Z,100.00
2022-08-26T02:50:18.051Z,100.00
2022-08-26T02:52:44.724Z,100.00
2022-08-26T02:55:11.777Z,100.00
2022-08-26T02:57:38.454Z,100.00
2022-08-26T03:00:08.594Z,100.00
2022-08-26T03:02:35.549Z,100.00
2022-08-26T03:05:02.666Z,100.00
2022-08-26T03:07:29.989Z,100.00
2022-08-26T03:09:57.977Z,100.00
2022-08-26T03:12:25.746Z,100.00
2022-08-26T03:14:52.964Z,100.00
2022-08-26T03:17:19.621Z,100.00
2022-08-26T03:19:46.562Z,100.00
2022-08-26T03:22:14.833Z,100.00
2022-08-26T03:24:46.035Z,100.00
2022-08-26T03:27:13.318Z,100.00
2022-08-26T03:29:59.840Z,100.00
2022-08-26T03:32:26.935Z,100.00
2022-08-26T03:34:54.049Z,100.00
2022-08-26T03:37:21.626Z,100.00
2022-08-26T03:39:49.426Z,100.00
2022-08-26T03:42:16.164Z,100.00
2022-08-26T03:44:43.118Z,100.00
2022-08-26T03:47:10.933Z,100.00
2022-08-26T03:49:38.183Z,100.00
2022-08-26T03:52:05.413Z,100.00
2022-08-26T03:54:32.847Z,100.00
2022-08-26T03:57:00.172Z,100.00
2022-08-26T03:59:27.406Z,100.00
2022-08-26T04:01:54.752Z,100.00
2022-08-26T04:04:22.827Z,100.00
2022-08-26T04:06:58.459Z,100.00
2022-08-26T04:09:26.398Z,100.00
2022-08-26T04:11:53.614Z,100.00
2022-08-26T04:14:24.224Z,100.00
2022-08-26T04:16:52.930Z,100.00
2022-08-26T04:19:22.625Z,100.00
2022-08-26T04:21:53.335Z,100.00
2022-08-26T04:24:22.463Z,100.00
2022-08-26T04:26:49.172Z,100.00
2022-08-26T04:29:19.837Z,100.00
2022-08-26T04:31:48.158Z,100.00
2022-08-26T04:34:16.365Z,100.00
2022-08-26T04:36:43.884Z,100.00
2022-08-26T04:39:12.829Z,100.00
2022-08-26T04:41:40.124Z,100.00
2022-08-26T04:44:06.942Z,100.00
2022-08-26T04:46:33.935Z,100.00
2022-08-26T04:49:01.113Z,100.00
2022-08-26T04:51:28.514Z,100.00
2022-08-26T04:53:58.973Z,100.00
2022-08-26T04:56:28.443Z,100.00
2022-08-26T04:58:55.283Z,100.00
2022-08-26T05:01:22.270Z,100.00
2022-08-26T05:03:50.914Z,100.00
2022-08-26T05:06:19.616Z,100.00
2022-08-26T05:08:46.800Z,100.00
2022-08-26T05:11:13.708Z,100.00
2022-08-26T05:13:41.386Z,100.00
2022-08-26T05:16:11.577Z,100.00
2022-08-26T05:18:39.688Z,100.00
2022-08-26T05:21:07.344Z,100.00
2022-08-26T05:23:36.284Z,100.00
2022-08-26T05:26:08.083Z,100.00
2022-08-26T05:28:35.130Z,100.00
2022-08-26T05:31:11.894Z,100.00
2022-08-26T05:33:41.451Z,100.00
2022-08-26T05:36:16.413Z,100.00
2022-08-26T05:38:43.992Z,100.00
2022-08-26T05:41:19.978Z,100.00
2022-08-26T05:43:46.851Z,100.00
2022-08-26T05:46:14.150Z,100.00
2022-08-26T05:48:44.250Z,100.00
2022-08-26T05:51:12.370Z,100.00
2022-08-26T05:53:41.088Z,100.00
2022-08-26T05:56:12.049Z,100.00
2022-08-26T05:58:40.728Z,100.00
2022-08-26T06:01:16.466Z,100.00
2022-08-26T06:03:46.176Z,100.00
2022-08-26T06:06:36.274Z,100.00
2022-08-26T06:09:06.427Z,100.00
2022-08-26T06:11:36.305Z,100.00
2022-08-26T06:14:05.326Z,100.00
2022-08-26T06:16:35.367Z,100.00
2022-08-26T06:19:10.500Z,100.00
2022-08-26T06:21:40.519Z,100.00
2022-08-26T06:24:29.701Z,100.00
2022-08-26T06:27:01.595Z,100.00
2022-08-26T06:29:31.380Z,100.00
2022-08-26T06:31:58.763Z,100.00
2022-08-26T06:34:30.314Z,100.00
2022-08-26T06:37:01.139Z,100.00
2022-08-26T06:39:30.819Z,100.00
2022-08-26T06:41:58.918Z,100.00
2022-08-26T06:44:25.818Z,99.94
2022-08-26T06:46:52.590Z,98.55
2022-08-26T06:49:27.008Z,98.24
2022-08-26T06:51:54.642Z,97.51
2022-08-26T06:54:22.371Z,97.41
2022-08-26T06:56:49.558Z,97.79
2022-08-26T06:59:16.261Z,97.40
2022-08-26T07:01:44.910Z,96.28
2022-08-26T07:04:15.638Z,94.86
2022-08-26T07:06:48.920Z,94.28
2022-08-26T07:09:16.824Z,92.47
2022-08-26T07:11:44.629Z,90.27
2022-08-26T07:14:12.185Z,91.49
2022-08-26T07:16:39.997Z,90.67
2022-08-26T07:19:10.843Z,90.54
2022-08-26T07:21:40.447Z,87.66
2022-08-26T07:24:08.304Z,86.60
2022-08-26T07:26:34.957Z,85.62
2022-08-26T07:29:01.808Z,86.23
2022-08-26T07:31:36.091Z,84.96
2022-08-26T07:34:07.676Z,85.58
2022-08-26T07:36:34.875Z,85.44
2022-08-26T07:39:01.648Z,85.22
2022-08-26T07:43:57.051Z,84.83
2022-08-26T07:46:27.270Z,85.15
2022-08-26T07:48:57.553Z,85.92
2022-08-26T07:51:24.898Z,86.46
2022-08-26T07:53:52.302Z,86.70
2022-08-26T07:56:20.947Z,86.84
2022-08-26T07:58:51.314Z,87.15
2022-08-26T08:01:19.054Z,87.01
2022-08-26T08:03:45.859Z,86.97
2022-08-26T08:06:12.510Z,87.86
2022-08-26T08:08:41.387Z,88.00
2022-08-26T08:11:08.324Z,87.95
2022-08-26T08:13:39.149Z,87.05
2022-08-26T08:16:06.953Z,87.27
2022-08-26T08:18:40.462Z,88.16
2022-08-26T08:21:23.769Z,87.72
2022-08-26T08:23:52.686Z,87.84
2022-08-26T08:26:19.665Z,87.35
2022-08-26T08:28:47.928Z,86.35
2022-08-26T08:31:52.073Z,86.27
2022-08-26T08:34:09.475Z,87.82
2022-08-26T08:36:36.477Z,86.71
2022-08-26T08:39:03.921Z,86.38
2022-08-26T08:42:07.487Z,87.01
2022-08-26T08:44:38.017Z,88.47
2022-08-26T08:47:45.380Z,87.78
2022-08-26T08:50:46.146Z,83.86
2022-08-26T08:53:34.782Z,84.35
2022-08-26T08:56:53.045Z,84.64
2022-08-26T08:59:25.538Z,84.25
2022-08-26T09:01:59.046Z,85.47
2022-08-26T09:04:51.742Z,84.22
2022-08-26T09:07:25.277Z,84.85
2022-08-26T09:09:59.976Z,85.04
2022-08-26T09:12:33.180Z,85.45
2022-08-26T09:15:07.701Z,84.68
2022-08-26T09:18:06.906Z,84.58
2022-08-26T09:21:03.507Z,86.26
2022-08-26T09:23:33.965Z,86.15
2022-08-26T09:26:18.660Z,85.37
2022-08-26T09:28:56.126Z,85.37
2022-08-26T09:31:31.967Z,85.11
2022-08-26T09:34:21.105Z,85.62
2022-08-26T09:36:56.403Z,84.59
2022-08-26T09:39:33.965Z,85.28
2022-08-26T09:42:24.672Z,85.38
2022-08-26T09:45:27.585Z,84.75
2022-08-26T09:47:57.374Z,84.25
2022-08-26T09:50:31.512Z,82.34
2022-08-26T09:53:28.819Z,81.45
2022-08-26T09:56:30.017Z,80.61
2022-08-26T09:58:57.870Z,80.06
2022-08-26T10:01:43.446Z,79.60
2022-08-26T10:04:17.062Z,80.17
2022-08-26T10:07:00.543Z,79.19
2022-08-26T10:09:29.922Z,78.27
2022-08-26T10:12:02.560Z,77.66
2022-08-26T10:17:20.847Z,77.60
2022-08-26T10:20:03.693Z,79.87
2022-08-26T10:22:51.070Z,77.40
2022-08-26T10:25:26.104Z,76.79
2022-08-26T10:28:42.140Z,78.68
2022-08-26T10:31:27.468Z,78.59
2022-08-26T10:34:00.087Z,78.01
2022-08-26T10:37:10.812Z,78.83
2022-08-26T10:40:00.563Z,79.50
2022-08-26T10:42:38.458Z,78.90
2022-08-26T10:45:15.057Z,77.35
2022-08-26T10:47:50.320Z,77.48
2022-08-26T10:50:18.047Z,78.97
2022-08-26T10:53:16.095Z,78.86
2022-08-26T10:56:03.221Z,79.79
2022-08-26T10:59:06.489Z,78.25
2022-08-26T11:01:57.887Z,79.00
2022-08-26T11:04:51.446Z,78.62
2022-08-26T11:07:40.862Z,78.59
2022-08-26T11:10:21.237Z,78.29
2022-08-26T11:13:08.910Z,79.60
2022-08-26T11:15:58.762Z,80.48
2022-08-26T11:18:40.449Z,80.46
2022-08-26T11:22:05.126Z,81.69
2022-08-26T11:24:53.231Z,78.42
2022-08-26T11:27:45.573Z,78.80
2022-08-26T11:30:38.562Z,78.63
2022-08-26T11:33:07.877Z,80.52
2022-08-26T11:35:34.625Z,81.29
2022-08-26T11:38:21.964Z,81.49
2022-08-26T11:40:57.993Z,80.91
2022-08-26T11:43:29.879Z,81.62
2022-08-26T11:46:09.243Z,81.73
2022-08-26T11:48:42.358Z,80.79
2022-08-26T11:51:21.058Z,81.92
2022-08-26T11:53:48.646Z,81.40
2022-08-26T11:56:26.491Z,81.05
2022-08-26T11:58:58.562Z,82.51
2022-08-26T12:01:35.654Z,83.77
2022-08-26T12:04:08.235Z,82.30
2022-08-26T12:06:43.353Z,80.96
2022-08-26T12:09:20.650Z,80.21
2022-08-26T12:11:47.608Z,79.87
2022-08-26T12:14:24.261Z,80.82
2022-08-26T12:16:52.136Z,80.27
2022-08-26T12:19:37.006Z,73.50
2022-08-26T12:22:28.421Z,69.56
2022-08-26T12:25:00.644Z,72.17
2022-08-26T12:27:29.909Z,71.63
2022-08-26T12:30:12.390Z,70.47
2022-08-26T12:32:57.239Z,66.48
2022-08-26T12:35:26.852Z,66.36
2022-08-26T12:37:54.303Z,69.38
2022-08-26T12:40:57.041Z,68.00
2022-08-26T12:43:44.904Z,70.25
2022-08-26T12:46:24.375Z,70.06
2022-08-26T12:48:51.088Z,68.87
2022-08-26T12:51:32.267Z,69.19
2022-08-26T12:53:59.918Z,69.79
2022-08-26T12:56:53.111Z,69.83
2022-08-26T12:59:25.987Z,70.26
2022-08-26T13:01:53.808Z,69.84
2022-08-26T13:04:41.098Z,69.13
2022-08-26T13:07:34.123Z,67.54
2022-08-26T13:10:01.153Z,67.75
2022-08-26T13:12:33.272Z,69.85
2022-08-26T13:15:00.440Z,71.13
2022-08-26T13:17:28.970Z,71.05
2022-08-26T13:20:00.041Z,69.34
2022-08-26T13:22:29.580Z,70.47
2022-08-26T13:24:57.133Z,70.04
2022-08-26T13:27:26.257Z,69.95
2022-08-26T13:29:54.484Z,69.61
2022-08-26T13:32:22.514Z,68.09
2022-08-26T13:34:55.333Z,64.75
2022-08-26T13:37:24.342Z,64.67
2022-08-26T13:40:04.811Z,64.66
2022-08-26T13:42:31.575Z,64.97
2022-08-26T13:44:58.894Z,66.37
2022-08-26T13:47:26.149Z,66.31
2022-08-26T13:49:55.463Z,64.68
2022-08-26T13:52:29.147Z,64.79
2022-08-26T13:55:00.254Z,65.48
2022-08-26T13:57:28.584Z,64.15
2022-08-26T13:59:57.097Z,66.31
2022-08-26T14:02:24.000Z,64.79
2022-08-26T14:04:50.986Z,65.81
2022-08-26T14:07:17.830Z,66.25
2022-08-26T14:09:44.437Z,66.11
2022-08-26T14:12:11.118Z,65.85
2022-08-26T14:14:37.905Z,63.89
2022-08-26T14:17:04.587Z,64.60
2022-08-26T14:19:32.063Z,64.32
2022-08-26T14:22:00.929Z,64.87
2022-08-26T14:24:28.002Z,64.72
2022-08-26T14:26:54.847Z,65.15
2022-08-26T14:29:23.462Z,64.71
2022-08-26T14:31:50.311Z,65.08
2022-08-26T14:34:17.221Z,61.34
2022-08-26T14:36:43.887Z,61.79
2022-08-26T14:39:13.230Z,62.71
2022-08-26T14:41:54.496Z,62.97
2022-08-26T14:44:29.068Z,64.04
2022-08-26T14:46:56.193Z,64.51
2022-08-26T14:49:24.438Z,64.32
2022-08-26T14:51:51.158Z,66.16
2022-08-26T14:54:18.743Z,66.24
2022-08-26T14:56:55.673Z,64.79
2022-08-26T14:59:31.939Z,66.66
2022-08-26T15:01:59.195Z,65.19
2022-08-26T15:04:26.257Z,64.98
2022-08-26T15:06:54.793Z,64.50
2022-08-26T15:09:22.964Z,64.53
2022-08-26T15:11:50.506Z,64.09
2022-08-26T15:14:19.113Z,65.58
2022-08-26T15:16:50.889Z,64.00
2022-08-26T15:19:18.249Z,65.76
2022-08-26T15:21:45.626Z,65.46
2022-08-26T15:24:13.138Z,63.33
2022-08-26T15:26:39.862Z,64.38
2022-08-26T15:29:06.805Z,63.68
2022-08-26T15:31:34.098Z,64.91
2022-08-26T15:34:04.514Z,65.97
2022-08-26T15:36:32.656Z,65.60
2022-08-26T15:39:00.487Z,67.51
2022-08-26T15:41:27.984Z,67.16
2022-08-26T15:43:54.591Z,63.69
2022-08-26T15:46:21.474Z,64.77
2022-08-26T15:48:48.204Z,64.67
2022-08-26T15:51:32.954Z,65.14
2022-08-26T15:54:01.563Z,65.37
2022-08-26T15:56:31.038Z,66.22
2022-08-26T15:58:58.178Z,66.11
2022-08-26T16:01:27.658Z,65.23
2022-08-26T16:03:55.239Z,65.22
2022-08-26T16:06:27.557Z,66.16
2022-08-26T16:08:56.081Z,66.49
2022-08-26T16:11:23.509Z,68.29
2022-08-26T16:13:50.620Z,68.72
2022-08-26T16:16:17.809Z,69.23
2022-08-26T16:18:44.966Z,69.40
2022-08-26T16:21:17.478Z,69.58
2022-08-26T16:23:44.988Z,70.35
2022-08-26T16:26:17.966Z,70.27
2022-08-26T16:28:45.274Z,69.60
2022-08-26T16:31:12.507Z,66.57
2022-08-26T16:33:39.435Z,69.39
2022-08-26T16:36:07.354Z,68.30
2022-08-26T16:38:34.857Z,67.50
2022-08-26T16:41:02.064Z,68.99
2022-08-26T16:43:31.581Z,70.40
2022-08-26T16:45:58.459Z,71.10
2022-08-26T16:48:27.968Z,72.80
2022-08-26T16:50:55.705Z,73.87
2022-08-26T16:53:23.150Z,74.62
2022-08-26T16:55:50.896Z,75.40
2022-08-26T16:58:18.511Z,75.94
2022-08-26T17:00:45.613Z,76.19
2022-08-26T17:03:12.763Z,75.49
2022-08-26T17:05:40.237Z,74.71
2022-08-26T17:08:07.290Z,74.95
2022-08-26T17:10:34.791Z,74.08
2022-08-26T17:13:01.514Z,75.11
2022-08-26T17:15:28.460Z,74.86
2022-08-26T17:17:56.605Z,75.32
2022-08-26T17:20:24.920Z,74.53
2022-08-26T17:22:53.926Z,75.09
2022-08-26T17:25:29.794Z,75.46
2022-08-26T17:30:30.810Z,77.22
2022-08-26T17:32:58.302Z,78.09
2022-08-26T17:35:26.764Z,79.50
2022-08-26T17:37:53.417Z,81.86
2022-08-26T17:40:22.501Z,83.13
2022-08-26T17:42:49.652Z,83.29
2022-08-26T17:45:17.795Z,83.87
2022-08-26T17:47:45.326Z,84.67
2022-08-26T17:50:15.221Z,85.40
2022-08-26T17:52:43.997Z,85.89
2022-08-26T17:55:13.377Z,86.26
2022-08-26T17:57:40.892Z,85.83
2022-08-26T18:00:13.838Z,85.89
2022-08-26T18:02:42.041Z,86.00
2022-08-26T18:05:11.963Z,86.28
2022-08-26T18:07:43.914Z,86.17
2022-08-26T18:10:13.330Z,86.20
2022-08-26T18:12:41.478Z,86.17
2022-08-26T18:15:09.914Z,86.37
2022-08-26T18:17:37.715Z,86.25
2022-08-26T18:20:05.294Z,87.31
2022-08-26T18:22:32.134Z,86.85
2022-08-26T18:24:59.066Z,86.90
2022-08-26T18:27:26.397Z,84.04
2022-08-26T18:29:53.074Z,81.72
2022-08-26T18:32:19.727Z,79.99
2022-08-26T18:34:46.566Z,78.61
2022-08-26T18:39:45.690Z,77.11
2022-08-26T18:42:12.838Z,77.99
2022-08-26T18:44:39.405Z,78.19
2022-08-26T18:47:06.226Z,78.65
2022-08-26T18:49:33.005Z,79.15
2022-08-26T18:51:59.683Z,80.47
2022-08-26T18:54:26.382Z,81.02
2022-08-26T18:56:53.121Z,80.27
2022-08-26T18:59:19.944Z,80.80
2022-08-26T19:04:23.628Z,82.57
2022-08-26T19:06:51.261Z,82.15
2022-08-26T19:09:19.125Z,82.89
2022-08-26T19:11:49.663Z,83.69
2022-08-26T19:14:17.347Z,83.46
2022-08-26T19:16:46.823Z,84.19
2022-08-26T19:19:14.826Z,83.52
2022-08-26T19:21:41.600Z,84.28
2022-08-26T19:24:15.278Z,84.85
2022-08-26T19:26:46.789Z,85.58
2022-08-26T19:29:14.003Z,86.30
2022-08-26T19:31:42.197Z,87.27
2022-08-26T19:34:10.820Z,87.79
2022-08-26T19:36:38.149Z,87.80
2022-08-26T19:39:08.684Z,87.53
2022-08-26T19:41:38.013Z,87.66
2022-08-26T19:44:38.355Z,88.00
2022-08-26T19:47:07.797Z,88.97
2022-08-26T19:49:34.868Z,89.63
2022-08-26T19:52:03.007Z,89.73
2022-08-26T19:54:30.134Z,90.55
2022-08-26T19:56:56.839Z,91.65
2022-08-26T19:59:23.519Z,92.32
2022-08-26T20:02:00.386Z,92.75
2022-08-26T20:04:27.641Z,94.60
2022-08-26T20:06:57.871Z,93.96
2022-08-26T20:09:30.350Z,94.03
2022-08-26T20:11:57.348Z,93.96
2022-08-26T20:14:25.530Z,93.51
2022-08-26T20:16:52.505Z,93.45
2022-08-26T20:19:37.847Z,94.06
2022-08-26T20:22:05.253Z,95.34
2022-08-26T20:24:32.615Z,94.82
2022-08-26T20:26:59.196Z,94.72
2022-08-26T20:29:26.021Z,95.44
2022-08-26T20:31:53.360Z,95.41
2022-08-26T20:34:20.854Z,94.86
2022-08-26T20:36:49.262Z,95.10
2022-08-26T20:39:16.968Z,94.37
2022-08-26T20:41:45.409Z,94.43
2022-08-26T20:44:13.747Z,94.33
2022-08-26T20:46:41.180Z,94.47
2022-08-26T20:49:08.248Z,95.38
2022-08-26T20:51:37.393Z,95.24
2022-08-26T20:54:06.318Z,96.21
2022-08-26T20:56:32.915Z,96.26
2022-08-26T20:59:01.004Z,97.08
2022-08-26T21:01:34.490Z,97.53
2022-08-26T21:04:05.062Z,96.64
2022-08-26T21:06:35.520Z,97.01
2022-08-26T21:09:05.900Z,97.18
2022-08-26T21:11:33.559Z,96.97
2022-08-26T21:14:16.230Z,97.57
2022-08-26T21:16:45.192Z,96.36
2022-08-26T21:19:14.966Z,97.90
2022-08-26T21:21:41.717Z,97.03
2022-08-26T21:24:09.137Z,97.53
2022-08-26T21:26:35.742Z,97.17
2022-08-26T21:29:03.109Z,96.98
2022-08-26T21:31:31.956Z,97.04
2022-08-26T21:33:59.451Z,97.56
2022-08-26T21:36:26.563Z,97.25
2022-08-26T21:38:56.237Z,97.85
2022-08-26T21:41:23.659Z,97.65
2022-08-26T21:43:51.815Z,97.86
2022-08-26T21:46:21.970Z,97.54
2022-08-26T21:48:51.804Z,97.46
2022-08-26T21:51:21.044Z,97.06
2022-08-26T21:53:48.590Z,96.83
2022-08-26T21:56:17.160Z,97.03
2022-08-26T21:58:44.212Z,97.09
2022-08-26T22:01:14.910Z,98.26
2022-08-26T22:03:47.396Z,98.20
2022-08-26T22:06:16.711Z,97.65
2022-08-26T22:08:43.726Z,97.56
2022-08-26T22:11:10.529Z,97.64
2022-08-26T22:13:39.207Z,98.78
2022-08-26T22:16:07.031Z,96.70
2022-08-26T22:18:34.443Z,97.71
2022-08-26T22:21:04.044Z,97.98
2022-08-26T22:23:30.941Z,97.87
2022-08-26T22:25:58.541Z,97.55
2022-08-26T22:28:26.090Z,97.20
2022-08-26T22:30:52.755Z,96.80
2022-08-26T22:33:20.085Z,97.83
2022-08-26T22:35:49.005Z,97.73
2022-08-26T22:38:16.134Z,97.82
2022-08-26T22:40:46.162Z,99.23
2022-08-26T22:43:13.788Z,99.79
2022-08-26T22:45:43.010Z,99.84
2022-08-26T22:48:11.472Z,100.00
2022-08-26T22:50:38.453Z,100.00
2022-08-26T22:53:05.110Z,100.00
2022-08-26T22:55:32.001Z,100.00
2022-08-26T22:57:59.018Z,100.00
2022-08-26T23:00:32.028Z,100.00
2022-08-26T23:02:59.588Z,100.00
2022-08-26T23:05:26.194Z,100.00
2022-08-26T23:07:53.929Z,100.00
2022-08-26T23:10:21.007Z,100.00
2022-08-26T23:12:47.615Z,100.00
2022-08-26T23:15:14.936Z,100.00
2022-08-26T23:17:42.996Z,100.00
2022-08-26T23:20:12.682Z,100.00
2022-08-26T23:22:40.183Z,100.00
2022-08-26T23:25:09.948Z,100.00
2022-08-26T23:27:39.609Z,100.00
2022-08-26T23:30:09.413Z,100.00
2022-08-26T23:32:36.184Z,100.00
2022-08-26T23:35:03.888Z,100.00
2022-08-26T23:37:34.227Z,100.00
2022-08-26T23:40:12.132Z,100.00
2022-08-26T23:42:39.092Z,100.00
2022-08-26T23:45:07.460Z,100.00
2022-08-26T23:47:34.588Z,100.00
2022-08-26T23:50:01.270Z,100.00
2022-08-26T23:52:46.867Z,100.00
2022-08-26T23:55:14.440Z,100.00
2022-08-26T23:57:41.671Z,100.00
